Ambler Airport

Airport
ICAO code: 
PAFM
IATA Code: 
ABL
Summary
ICAO Region: 
NAM
Territory: 
Location: 
Ambler, Alaska
Serving: 
Ambler
Elevation: 
334 ft
Coordinates: 
Aerial View: 
67° 6' 23" N, 157° 51' 27" W
Metar
Observation
PAFM 210456Z AUTO 04010KT 10SM CLR M22/M27 A2991 RMK AO2 SLP143 T12221267 FZRANO
Station
Ambler, Ambler Airport
Date/Time
2022-01-21 04:56:00
Wind direction
40°
Wind speed
10 kts
Lowest cloud amount
n/a
Temperature
-22.2°C
Dew point
-26.7°C
Humidity
66%
Weather condition
n/a

Runways

Designator Length Width Surface Rops
9/27 732 18 GVL No/No
18/36 914 18 GVL No/No
Airport map: 
Aerial View: 

SKYbrary Partners:

Safety knowledge contributed by: